Cabinda, Cabinda Airport (FNCA)

NameCabinda Airport
CityCabinda
CountryAngola
ICAOFNCA
IATACAB
Altitude20 m
CoordinatesGoogle Map
Live Air TrafficLiveATC.net
METARFNCA 271300Z 18007KT 9999 FEW020 FEW021CB 32/25 Q1008
2020-02-27 13:00:00 Wind: South (180°) 3.6 m/s - Visibility: > 10000 m - Temperature: 32 °C - Dew point: 25 °C - Humidity: 66.5% - Pressure: 1008 hPa
Statistics

The table below shows the detailed information of all flights to/from Cabinda, Cabinda Airport (FNCA).